createdAt,value
2017-08-15T00:00:38.714Z,0
2017-08-15T00:01:19.239Z,0
2017-08-15T00:01:59.742Z,0
2017-08-15T00:02:40.248Z,0
2017-08-15T00:03:20.787Z,0
2017-08-15T00:04:01.309Z,0
2017-08-15T00:04:41.806Z,0
2017-08-15T00:05:22.331Z,0
2017-08-15T00:06:02.824Z,0
2017-08-15T00:06:43.344Z,0
2017-08-15T00:07:23.881Z,0
2017-08-15T00:08:04.396Z,0
2017-08-15T00:08:44.934Z,0
2017-08-15T00:09:25.477Z,0
2017-08-15T00:10:06.009Z,0
2017-08-15T00:10:46.542Z,0
2017-08-15T00:11:27.071Z,0
2017-08-15T00:12:07.591Z,0
2017-08-15T00:12:48.093Z,0
2017-08-15T00:13:28.610Z,0
2017-08-15T00:14:09.139Z,0
2017-08-15T00:14:49.672Z,0
2017-08-15T00:15:30.218Z,0
2017-08-15T00:16:10.751Z,0
2017-08-15T00:16:51.252Z,0
2017-08-15T00:17:31.793Z,0
2017-08-15T00:18:12.330Z,0
2017-08-15T00:18:52.871Z,0
2017-08-15T00:19:33.432Z,0
2017-08-15T00:20:13.970Z,0
2017-08-15T00:20:54.509Z,0
2017-08-15T00:21:35.052Z,0
2017-08-15T00:22:15.576Z,0
2017-08-15T00:22:56.116Z,0
2017-08-15T00:23:36.655Z,0
2017-08-15T00:24:17.195Z,0
2017-08-15T00:24:57.737Z,0
2017-08-15T00:25:38.306Z,0
2017-08-15T00:26:18.823Z,0
2017-08-15T00:26:59.360Z,0
2017-08-15T00:27:39.896Z,0
2017-08-15T00:28:20.431Z,0
2017-08-15T00:29:00.969Z,0
2017-08-15T00:29:41.509Z,0
2017-08-15T00:30:22.047Z,0
2017-08-15T00:31:02.588Z,0
2017-08-15T00:31:43.128Z,0
2017-08-15T00:32:23.662Z,0
2017-08-15T00:33:04.207Z,0
2017-08-15T00:33:44.737Z,0
2017-08-15T00:34:25.276Z,0
2017-08-15T00:35:05.815Z,0
2017-08-15T00:35:46.355Z,0
2017-08-15T00:36:26.895Z,0
2017-08-15T00:37:07.448Z,0
2017-08-15T00:37:47.965Z,0
2017-08-15T00:38:28.495Z,0
2017-08-15T00:39:09.026Z,0
2017-08-15T00:39:49.567Z,0
2017-08-15T00:40:30.068Z,0
2017-08-15T00:41:10.580Z,0
2017-08-15T00:41:51.098Z,0
2017-08-15T00:42:31.625Z,0
2017-08-15T00:43:12.176Z,0
2017-08-15T00:43:52.719Z,0
2017-08-15T00:44:33.266Z,0
2017-08-15T00:45:13.782Z,0
2017-08-15T00:45:54.323Z,0
2017-08-15T00:46:34.864Z,0
2017-08-15T00:47:15.403Z,0
2017-08-15T00:47:55.936Z,0
2017-08-15T00:48:36.472Z,0
2017-08-15T00:49:17.019Z,0
2017-08-15T00:49:57.547Z,0
2017-08-15T00:50:38.089Z,0
2017-08-15T00:51:18.628Z,0
2017-08-15T00:51:59.165Z,0
2017-08-15T00:52:39.722Z,0
2017-08-15T00:53:20.264Z,0
2017-08-15T00:54:00.785Z,0
2017-08-15T00:54:41.364Z,0
2017-08-15T00:55:21.889Z,0
2017-08-15T00:56:02.423Z,0
2017-08-15T00:56:42.911Z,0
2017-08-15T00:57:23.428Z,0
2017-08-15T00:58:03.925Z,0
2017-08-15T00:58:44.448Z,0
2017-08-15T00:59:25.027Z,0
2017-08-15T01:00:05.554Z,0
2017-08-15T01:00:46.030Z,0
2017-08-15T01:01:26.564Z,0
2017-08-15T01:02:07.101Z,0
2017-08-15T01:02:47.575Z,0
2017-08-15T01:03:28.096Z,0
2017-08-15T01:04:08.596Z,0
2017-08-15T01:04:49.134Z,0
2017-08-15T01:05:29.615Z,0
2017-08-15T01:06:10.136Z,0
2017-08-15T01:06:50.666Z,0
2017-08-15T01:07:31.193Z,0
2017-08-15T01:08:11.731Z,0
2017-08-15T01:08:52.271Z,0
2017-08-15T01:09:32.808Z,0
2017-08-15T01:10:13.341Z,0
2017-08-15T01:10:53.877Z,0
2017-08-15T01:11:34.417Z,0
2017-08-15T01:12:14.937Z,0
2017-08-15T01:12:55.488Z,0
2017-08-15T01:13:36.024Z,0
2017-08-15T01:14:16.563Z,0
2017-08-15T01:14:57.102Z,0
2017-08-15T01:15:37.634Z,0
2017-08-15T01:16:18.176Z,0
2017-08-15T01:16:58.751Z,0
2017-08-15T01:17:39.286Z,0
2017-08-15T01:18:19.828Z,0
2017-08-15T01:19:00.364Z,0
2017-08-15T01:19:40.893Z,0
2017-08-15T01:20:21.432Z,0
2017-08-15T01:21:01.961Z,0
2017-08-15T01:21:42.470Z,0
2017-08-15T01:22:22.993Z,0
2017-08-15T01:23:03.524Z,0
2017-08-15T01:23:44.058Z,0
2017-08-15T01:24:24.606Z,0
2017-08-15T01:25:05.141Z,0
2017-08-15T01:25:45.628Z,0
2017-08-15T01:26:26.163Z,0
2017-08-15T01:27:06.699Z,0
2017-08-15T01:27:47.223Z,0
2017-08-15T01:28:27.763Z,0
2017-08-15T01:29:08.290Z,0
2017-08-15T01:29:48.805Z,0
2017-08-15T01:30:29.339Z,0
2017-08-15T01:31:09.882Z,0
2017-08-15T01:31:50.403Z,0
2017-08-15T01:32:30.903Z,0
2017-08-15T01:33:11.428Z,0
2017-08-15T01:33:51.909Z,0
2017-08-15T01:34:32.422Z,0
2017-08-15T01:35:12.966Z,0
2017-08-15T01:35:53.479Z,0
2017-08-15T01:36:33.988Z,0
2017-08-15T01:37:14.498Z,0
2017-08-15T01:37:54.996Z,0
2017-08-15T01:38:35.501Z,0
2017-08-15T01:39:16.035Z,0
2017-08-15T01:39:56.588Z,0
2017-08-15T01:40:37.115Z,0
2017-08-15T01:41:17.654Z,0
2017-08-15T01:41:58.203Z,0
2017-08-15T01:42:38.734Z,0
2017-08-15T01:43:19.273Z,0
2017-08-15T01:43:59.815Z,0
2017-08-15T01:44:40.363Z,0
2017-08-15T01:45:20.924Z,0
2017-08-15T01:46:01.449Z,0
2017-08-15T01:46:41.999Z,0
2017-08-15T01:47:22.501Z,0
2017-08-15T01:48:03.062Z,0
2017-08-15T01:48:43.638Z,0
2017-08-15T01:49:24.131Z,0
2017-08-15T01:50:04.663Z,0
2017-08-15T01:50:45.187Z,0
2017-08-15T01:51:25.718Z,0
2017-08-15T01:52:06.236Z,0
2017-08-15T01:52:46.752Z,0
2017-08-15T01:53:27.218Z,0
2017-08-15T01:54:07.736Z,0
2017-08-15T01:54:48.275Z,0
2017-08-15T01:55:28.812Z,0
2017-08-15T01:56:09.333Z,0
2017-08-15T01:56:49.829Z,0
2017-08-15T01:57:30.408Z,0
2017-08-15T01:58:10.961Z,0
2017-08-15T01:58:51.511Z,0
2017-08-15T01:59:32.058Z,0
2017-08-15T02:00:12.582Z,0
2017-08-15T02:00:53.120Z,0
2017-08-15T02:01:33.659Z,0
2017-08-15T02:02:14.197Z,0
2017-08-15T02:02:54.761Z,0
2017-08-15T02:03:35.270Z,0
2017-08-15T02:04:15.819Z,0
2017-08-15T02:04:56.299Z,0
2017-08-15T02:05:36.822Z,0
2017-08-15T02:06:17.300Z,0
2017-08-15T02:06:57.826Z,0
2017-08-15T02:07:38.329Z,0
2017-08-15T02:08:18.836Z,0
2017-08-15T02:08:59.357Z,0
2017-08-15T02:09:39.852Z,0
2017-08-15T02:10:20.341Z,0
2017-08-15T02:11:00.872Z,0
2017-08-15T02:11:41.410Z,0
2017-08-15T02:12:21.950Z,0
2017-08-15T02:13:02.473Z,0
2017-08-15T02:13:42.997Z,0
2017-08-15T02:14:23.509Z,0
2017-08-15T02:15:04.015Z,0
2017-08-15T02:15:44.535Z,0
2017-08-15T02:16:25.048Z,0
2017-08-15T02:17:05.597Z,0
2017-08-15T02:17:46.072Z,0
2017-08-15T02:18:26.616Z,0
2017-08-15T02:19:07.161Z,0
2017-08-15T02:19:47.676Z,0
2017-08-15T02:20:28.181Z,0
2017-08-15T02:21:08.718Z,0
2017-08-15T02:21:49.256Z,0
2017-08-15T02:22:29.775Z,0
2017-08-15T02:23:10.311Z,0
2017-08-15T02:23:50.833Z,0
2017-08-15T02:24:31.376Z,0
2017-08-15T02:25:11.912Z,0
2017-08-15T02:25:52.455Z,0
2017-08-15T02:26:32.976Z,0
2017-08-15T02:27:13.513Z,0
2017-08-15T02:27:54.043Z,0
2017-08-15T02:28:34.581Z,0
2017-08-15T02:29:15.116Z,0
2017-08-15T02:29:55.633Z,0
2017-08-15T02:30:36.176Z,0
2017-08-15T02:31:16.731Z,0
2017-08-15T02:31:57.265Z,0
2017-08-15T02:32:37.797Z,0
2017-08-15T02:33:18.333Z,0
2017-08-15T02:33:58.850Z,0
2017-08-15T02:34:39.371Z,0
2017-08-15T02:35:19.880Z,0
2017-08-15T02:36:00.404Z,0
2017-08-15T02:36:40.917Z,0
2017-08-15T02:37:21.438Z,0
2017-08-15T02:38:01.900Z,0
2017-08-15T02:38:42.421Z,0
2017-08-15T02:39:22.975Z,0
2017-08-15T02:40:03.480Z,0
2017-08-15T02:40:43.984Z,0
2017-08-15T02:41:24.514Z,0
2017-08-15T02:42:05.037Z,0
2017-08-15T02:42:45.580Z,0
2017-08-15T02:43:26.109Z,0
2017-08-15T02:44:06.618Z,0
2017-08-15T02:44:47.140Z,0
2017-08-15T02:45:27.647Z,0
2017-08-15T02:46:08.157Z,0
2017-08-15T02:46:48.680Z,0
2017-08-15T02:47:29.212Z,0
2017-08-15T02:48:09.757Z,0
2017-08-15T02:48:50.299Z,0
2017-08-15T02:49:30.834Z,0
2017-08-15T02:50:11.372Z,0
2017-08-15T02:50:51.916Z,0
2017-08-15T02:51:32.440Z,0
2017-08-15T02:52:12.980Z,0
2017-08-15T02:52:53.529Z,0
2017-08-15T02:53:34.041Z,0
2017-08-15T02:54:14.540Z,0
2017-08-15T02:54:55.043Z,0
2017-08-15T02:55:35.549Z,0
2017-08-15T02:56:16.059Z,0
2017-08-15T02:56:56.565Z,0
2017-08-15T02:57:37.089Z,0
2017-08-15T02:58:17.586Z,0
2017-08-15T02:58:58.121Z,0
2017-08-15T02:59:38.652Z,0
2017-08-15T03:00:19.157Z,0
2017-08-15T03:00:59.683Z,0
2017-08-15T03:01:40.223Z,0
2017-08-15T03:02:20.755Z,0
2017-08-15T03:03:01.299Z,0
2017-08-15T03:03:41.838Z,0
2017-08-15T03:04:22.383Z,0
2017-08-15T03:05:02.877Z,0
2017-08-15T03:05:43.414Z,0
2017-08-15T03:06:23.902Z,0
2017-08-15T03:07:04.426Z,0
2017-08-15T03:07:44.941Z,0
2017-08-15T03:08:25.445Z,0
2017-08-15T03:09:05.950Z,0
2017-08-15T03:09:46.450Z,0
2017-08-15T03:10:27.019Z,0
2017-08-15T03:11:07.530Z,0
2017-08-15T03:11:48.043Z,0
2017-08-15T03:12:28.548Z,0
2017-08-15T03:13:09.063Z,0
2017-08-15T03:13:49.583Z,0
2017-08-15T03:14:30.079Z,0
2017-08-15T03:15:10.587Z,0
2017-08-15T03:15:51.077Z,0
2017-08-15T03:16:31.587Z,0
2017-08-15T03:17:12.169Z,0
2017-08-15T03:17:52.652Z,0
2017-08-15T03:18:33.146Z,0
2017-08-15T03:19:13.706Z,0
2017-08-15T03:19:54.231Z,0
2017-08-15T03:20:34.739Z,0
2017-08-15T03:21:15.276Z,0
2017-08-15T03:21:55.805Z,0
2017-08-15T03:22:36.345Z,0
2017-08-15T03:23:16.875Z,0
2017-08-15T03:23:57.403Z,0
2017-08-15T03:24:37.933Z,0
2017-08-15T03:25:18.447Z,0
2017-08-15T03:25:58.982Z,0
2017-08-15T03:26:39.570Z,0
2017-08-15T03:27:20.058Z,0
2017-08-15T03:28:00.574Z,0
2017-08-15T03:28:41.246Z,0
2017-08-15T03:29:22.158Z,0
2017-08-15T03:30:02.931Z,0
2017-08-15T03:30:43.510Z,0
2017-08-15T03:31:24.061Z,0
2017-08-15T03:32:04.682Z,0
2017-08-15T03:32:45.269Z,0
2017-08-15T03:33:25.823Z,0
2017-08-15T03:34:06.361Z,0
2017-08-15T03:34:46.845Z,0
2017-08-15T03:35:27.334Z,0
2017-08-15T03:36:07.909Z,0
2017-08-15T03:36:48.421Z,0
2017-08-15T03:37:28.926Z,0
2017-08-15T03:38:09.483Z,0
2017-08-15T03:38:49.985Z,0
2017-08-15T03:39:30.533Z,0
2017-08-15T03:40:11.080Z,0
2017-08-15T03:40:51.640Z,0
2017-08-15T03:41:32.173Z,0
2017-08-15T03:42:12.624Z,0
2017-08-15T03:42:53.137Z,0
2017-08-15T03:43:33.672Z,0
2017-08-15T03:44:14.187Z,0
2017-08-15T03:44:54.691Z,0
2017-08-15T03:45:35.335Z,0
2017-08-15T03:46:15.809Z,0
2017-08-15T03:46:56.295Z,0
2017-08-15T03:47:36.887Z,0
2017-08-15T03:48:17.393Z,0
2017-08-15T03:48:57.968Z,0
2017-08-15T03:49:38.564Z,0
2017-08-15T03:50:19.089Z,0
2017-08-15T03:50:59.629Z,4
2017-08-15T03:51:40.199Z,4
2017-08-15T03:52:20.635Z,4
2017-08-15T03:53:01.134Z,4
2017-08-15T03:53:41.752Z,0
2017-08-15T03:54:24.122Z,4
2017-08-15T03:55:04.655Z,4
2017-08-15T03:55:45.230Z,4
2017-08-15T03:56:25.723Z,4
2017-08-15T03:57:06.216Z,8
2017-08-15T03:57:46.758Z,4
2017-08-15T03:58:27.287Z,4
2017-08-15T03:59:07.817Z,8
2017-08-15T03:59:48.327Z,4
2017-08-15T04:00:28.928Z,8
2017-08-15T04:01:09.438Z,8
2017-08-15T04:01:49.941Z,8
2017-08-15T04:02:30.430Z,8
2017-08-15T04:03:11.040Z,12
2017-08-15T04:03:51.638Z,12
2017-08-15T04:04:32.294Z,12
2017-08-15T04:05:12.789Z,12
2017-08-15T04:05:53.319Z,16
2017-08-15T04:06:33.890Z,16
2017-08-15T04:07:14.462Z,20
2017-08-15T04:07:54.918Z,20
2017-08-15T04:08:35.502Z,24
2017-08-15T04:09:16.063Z,24
2017-08-15T04:09:56.515Z,28
2017-08-15T04:10:37.064Z,28
2017-08-15T04:11:17.566Z,28
2017-08-15T04:11:59.949Z,32
2017-08-15T04:12:40.477Z,36
2017-08-15T04:13:21.009Z,40
2017-08-15T04:14:01.528Z,44
2017-08-15T04:14:42.082Z,44
2017-08-15T04:15:22.590Z,48
2017-08-15T04:16:03.128Z,48
2017-08-15T04:16:43.706Z,56
2017-08-15T04:17:24.192Z,60
2017-08-15T04:18:04.685Z,60
2017-08-15T04:18:45.249Z,68
2017-08-15T04:19:25.919Z,72
2017-08-15T04:20:06.463Z,76
2017-08-15T04:20:46.939Z,80
2017-08-15T04:21:28.332Z,84
2017-08-15T04:22:08.836Z,84
2017-08-15T04:22:49.360Z,92
2017-08-15T04:23:29.880Z,92
2017-08-15T04:24:10.418Z,96
2017-08-15T04:24:50.956Z,104
2017-08-15T04:25:31.467Z,104
2017-08-15T04:26:12.018Z,108
2017-08-15T04:26:52.564Z,112
2017-08-15T04:27:33.112Z,116
2017-08-15T04:28:13.622Z,120
2017-08-15T04:28:54.162Z,124
2017-08-15T04:29:34.705Z,128
2017-08-15T04:30:15.248Z,128
2017-08-15T04:30:55.777Z,132
2017-08-15T04:31:36.324Z,136
2017-08-15T04:32:16.868Z,140
2017-08-15T04:32:57.403Z,148
2017-08-15T04:33:37.976Z,152
2017-08-15T04:34:18.485Z,156
2017-08-15T04:34:59.023Z,156
2017-08-15T04:35:39.561Z,164
2017-08-15T04:36:20.092Z,168
2017-08-15T04:37:00.593Z,172
2017-08-15T04:37:41.120Z,176
2017-08-15T04:38:21.613Z,180
2017-08-15T04:39:02.112Z,184
2017-08-15T04:39:42.632Z,192
2017-08-15T04:40:23.168Z,192
2017-08-15T04:41:03.656Z,200
2017-08-15T04:41:44.191Z,204
2017-08-15T04:42:24.744Z,208
2017-08-15T04:43:05.326Z,212
2017-08-15T04:43:45.852Z,220
2017-08-15T04:44:26.376Z,224
2017-08-15T04:45:06.857Z,228
2017-08-15T04:45:47.360Z,232
2017-08-15T04:46:27.856Z,240
2017-08-15T04:47:08.382Z,244
2017-08-15T04:47:48.909Z,252
2017-08-15T04:48:29.441Z,256
2017-08-15T04:49:09.981Z,260
2017-08-15T04:49:50.540Z,268
2017-08-15T04:50:31.079Z,272
2017-08-15T04:51:11.586Z,276
2017-08-15T04:51:52.084Z,284
2017-08-15T04:52:32.574Z,288
2017-08-15T04:53:13.146Z,296
2017-08-15T04:53:53.585Z,304
2017-08-15T04:54:34.127Z,312
2017-08-15T04:55:14.629Z,320
2017-08-15T04:55:55.180Z,328
2017-08-15T04:56:35.722Z,336
2017-08-15T04:57:16.237Z,344
2017-08-15T04:57:56.778Z,352
2017-08-15T04:58:37.259Z,360
2017-08-15T04:59:17.830Z,368
2017-08-15T04:59:58.372Z,380
2017-08-15T05:00:38.953Z,392
2017-08-15T05:01:19.397Z,404
2017-08-15T05:01:59.931Z,412
2017-08-15T05:02:40.403Z,428
2017-08-15T05:03:20.943Z,444
2017-08-15T05:04:01.483Z,460
2017-08-15T05:04:42.017Z,476
2017-08-15T05:05:22.550Z,496
2017-08-15T05:06:03.060Z,512
2017-08-15T05:06:43.587Z,532
2017-08-15T05:07:24.138Z,548
2017-08-15T05:08:04.674Z,564
2017-08-15T05:08:45.199Z,588
2017-08-15T05:09:25.699Z,604
2017-08-15T05:10:06.208Z,624
2017-08-15T05:10:46.712Z,644
2017-08-15T05:11:27.249Z,660
2017-08-15T05:12:07.786Z,676
2017-08-15T05:12:48.335Z,692
2017-08-15T05:13:28.888Z,712
2017-08-15T05:14:09.454Z,728
2017-08-15T05:14:49.989Z,740
2017-08-15T05:15:30.550Z,760
2017-08-15T05:16:11.086Z,776
2017-08-15T05:16:51.651Z,792
2017-08-15T05:17:32.206Z,808
2017-08-15T05:18:12.734Z,828
2017-08-15T05:18:53.260Z,848
2017-08-15T05:19:33.803Z,868
2017-08-15T05:20:14.337Z,880
2017-08-15T05:20:54.863Z,896
2017-08-15T05:21:35.422Z,908
2017-08-15T05:22:15.939Z,920
2017-08-15T05:22:56.677Z,936
2017-08-15T05:23:37.334Z,944
2017-08-15T05:24:17.988Z,956
2017-08-15T05:24:58.544Z,968
2017-08-15T05:25:39.092Z,984
2017-08-15T05:26:19.562Z,996
2017-08-15T05:27:00.018Z,1000
2017-08-15T05:27:40.540Z,1008
2017-08-15T05:28:21.050Z,1028
2017-08-15T05:29:01.550Z,1036
2017-08-15T05:29:42.099Z,1040
2017-08-15T05:30:22.616Z,1060
2017-08-15T05:31:03.172Z,1068
2017-08-15T05:31:43.677Z,1068
2017-08-15T05:32:24.169Z,1076
2017-08-15T05:33:04.685Z,1096
2017-08-15T05:33:45.168Z,1096
2017-08-15T05:34:25.651Z,1104
2017-08-15T05:35:06.160Z,1112
2017-08-15T05:35:46.716Z,1120
2017-08-15T05:36:27.267Z,1128
2017-08-15T05:37:07.818Z,1136
2017-08-15T05:37:48.382Z,1148
2017-08-15T05:38:28.918Z,1152
2017-08-15T05:39:09.446Z,1164
2017-08-15T05:39:49.978Z,1172
2017-08-15T05:40:30.547Z,1176
2017-08-15T05:41:11.080Z,1180
2017-08-15T05:41:51.618Z,1192
2017-08-15T05:42:32.157Z,1196
2017-08-15T05:43:12.683Z,1204
2017-08-15T05:43:53.260Z,1212
2017-08-15T05:44:33.779Z,1224
2017-08-15T05:45:14.322Z,1228
2017-08-15T05:45:54.880Z,1240
2017-08-15T05:46:35.428Z,1244
2017-08-15T05:47:15.954Z,1252
2017-08-15T05:47:56.489Z,1260
2017-08-15T05:48:37.032Z,1272
2017-08-15T05:49:17.568Z,1280
2017-08-15T05:49:58.100Z,1280
2017-08-15T05:50:38.618Z,1288
2017-08-15T05:51:19.108Z,1300
2017-08-15T05:51:59.595Z,1304
2017-08-15T05:52:40.079Z,1308
2017-08-15T05:53:20.570Z,1320
2017-08-15T05:54:01.088Z,1328
2017-08-15T05:54:41.626Z,1336
2017-08-15T05:55:22.167Z,1344
2017-08-15T05:56:02.655Z,1348
2017-08-15T05:56:43.156Z,1356
2017-08-15T05:57:23.620Z,1364
2017-08-15T05:58:04.101Z,1372
2017-08-15T05:58:44.685Z,1380
2017-08-15T05:59:25.212Z,1392
2017-08-15T06:00:05.711Z,1404
2017-08-15T06:00:46.214Z,1416
2017-08-15T06:01:26.750Z,1424
2017-08-15T06:02:07.276Z,1436
2017-08-15T06:02:47.748Z,1452
2017-08-15T06:03:28.237Z,1468
2017-08-15T06:04:08.937Z,1480
2017-08-15T06:04:49.516Z,1492
2017-08-15T06:05:29.992Z,1500
2017-08-15T06:06:10.502Z,1508
2017-08-15T06:06:50.985Z,1520
2017-08-15T06:07:31.503Z,1532
2017-08-15T06:08:12.069Z,1544
2017-08-15T06:08:52.628Z,1560
2017-08-15T06:09:33.170Z,1568
2017-08-15T06:10:13.723Z,1580
2017-08-15T06:10:54.273Z,1596
2017-08-15T06:11:34.820Z,1608
2017-08-15T06:12:15.368Z,1628
2017-08-15T06:12:55.913Z,1644
2017-08-15T06:13:36.367Z,1664
2017-08-15T06:14:16.897Z,1692
2017-08-15T06:14:57.402Z,1716
2017-08-15T06:15:37.922Z,1756
2017-08-15T06:16:18.402Z,1796
2017-08-15T06:16:58.901Z,1836
2017-08-15T06:17:39.394Z,1876
2017-08-15T06:18:19.921Z,1916
2017-08-15T06:19:00.373Z,1960
2017-08-15T06:19:40.907Z,2008
2017-08-15T06:20:21.419Z,2056
2017-08-15T06:21:01.885Z,2124
2017-08-15T06:21:42.392Z,2224
2017-08-15T06:22:22.930Z,2344
2017-08-15T06:23:03.467Z,2464
2017-08-15T06:23:44.010Z,2588
2017-08-15T06:24:24.515Z,2684
2017-08-15T06:25:05.027Z,2756
2017-08-15T06:25:45.582Z,2816
2017-08-15T06:26:26.124Z,2852
2017-08-15T06:27:06.674Z,2876
2017-08-15T06:27:47.221Z,2928
2017-08-15T06:28:27.857Z,2976
2017-08-15T06:29:08.423Z,3008
2017-08-15T06:29:48.955Z,3036
2017-08-15T06:30:29.496Z,3032
2017-08-15T06:31:10.043Z,3008
2017-08-15T06:31:50.593Z,2960
2017-08-15T06:32:31.142Z,2900
2017-08-15T06:33:11.674Z,2844
2017-08-15T06:33:52.200Z,2788
2017-08-15T06:34:32.742Z,2732
2017-08-15T06:35:13.286Z,2684
2017-08-15T06:35:53.829Z,2664
2017-08-15T06:36:34.351Z,2700
2017-08-15T06:37:14.900Z,2780
2017-08-15T06:37:55.448Z,2900
2017-08-15T06:38:37.419Z,3004
2017-08-15T06:39:17.910Z,3148
2017-08-15T06:39:58.442Z,3280
2017-08-15T06:40:38.925Z,3396
2017-08-15T06:41:19.433Z,3608
2017-08-15T06:41:59.948Z,3764
2017-08-15T06:42:40.495Z,3892
2017-08-15T06:43:21.052Z,3992
2017-08-15T06:44:01.575Z,4080
2017-08-15T06:44:42.051Z,4148
2017-08-15T06:45:22.563Z,4144
2017-08-15T06:46:03.086Z,4080
2017-08-15T06:46:43.647Z,4000
2017-08-15T06:47:24.236Z,3884
2017-08-15T06:48:04.747Z,3732
2017-08-15T06:48:45.247Z,3624
2017-08-15T06:49:25.737Z,3600
2017-08-15T06:50:06.286Z,3644
2017-08-15T06:50:46.824Z,3652
2017-08-15T06:51:27.396Z,3660
2017-08-15T06:52:07.882Z,3704
2017-08-15T06:52:48.408Z,3760
2017-08-15T06:53:28.943Z,3840
2017-08-15T06:54:09.500Z,3948
2017-08-15T06:54:50.067Z,4060
2017-08-15T06:55:30.623Z,4176
2017-08-15T06:56:11.398Z,4288
2017-08-15T06:56:52.771Z,4404
2017-08-15T06:57:33.562Z,4528
2017-08-15T06:58:14.674Z,4608
2017-08-15T06:58:55.113Z,4696
2017-08-15T06:59:35.725Z,4784
2017-08-15T07:00:16.961Z,4920
2017-08-15T07:00:57.816Z,5064
2017-08-15T07:01:38.335Z,5208
2017-08-15T07:02:19.024Z,5328
2017-08-15T07:02:59.640Z,5428
2017-08-15T07:03:40.237Z,5492
2017-08-15T07:04:21.363Z,5532
2017-08-15T07:05:02.239Z,5596
2017-08-15T07:05:42.853Z,5704
2017-08-15T07:06:24.133Z,5752
2017-08-15T07:07:04.671Z,5804
2017-08-15T07:07:45.200Z,5876
2017-08-15T07:08:25.856Z,5932
2017-08-15T07:09:06.744Z,6068
2017-08-15T07:09:47.089Z,6124
2017-08-15T07:10:27.994Z,6168
2017-08-15T07:11:08.576Z,6192
2017-08-15T07:11:49.520Z,6204
2017-08-15T07:12:30.822Z,6172
2017-08-15T07:13:11.701Z,6184
2017-08-15T07:13:52.758Z,6316
2017-08-15T07:14:35.020Z,6380
2017-08-15T07:15:17.238Z,6372
2017-08-15T07:15:57.655Z,6336
2017-08-15T07:16:38.177Z,6348
2017-08-15T07:17:19.495Z,6412
2017-08-15T07:18:00.374Z,6464
2017-08-15T07:18:40.906Z,6572
2017-08-15T07:19:21.457Z,6664
2017-08-15T07:20:01.952Z,6960
2017-08-15T07:20:42.474Z,7640
2017-08-15T07:21:23.057Z,8244
2017-08-15T07:22:03.670Z,8908
2017-08-15T07:22:44.403Z,9360
2017-08-15T07:23:26.170Z,9000
2017-08-15T07:24:07.793Z,8720
2017-08-15T07:24:49.899Z,8096
2017-08-15T07:25:32.388Z,7688
2017-08-15T07:26:19.821Z,7556
2017-08-15T07:27:00.517Z,7380
2017-08-15T07:27:41.734Z,7336
2017-08-15T07:28:22.487Z,6888
2017-08-15T07:29:03.270Z,6900
2017-08-15T07:29:43.793Z,7232
2017-08-15T07:30:24.334Z,7736
2017-08-15T07:31:05.042Z,7904
2017-08-15T07:31:45.696Z,7824
2017-08-15T07:32:26.237Z,8044
2017-08-15T07:33:06.782Z,8316
2017-08-15T07:33:47.549Z,8376
2017-08-15T07:34:28.013Z,8716
2017-08-15T07:35:08.749Z,8660
2017-08-15T07:35:49.356Z,8688
2017-08-15T07:36:30.139Z,8156
2017-08-15T07:37:10.717Z,7736
2017-08-15T07:37:51.234Z,8180
2017-08-15T07:38:31.769Z,8428
2017-08-15T07:39:12.366Z,8548
2017-08-15T07:39:53.131Z,8948
2017-08-15T07:40:33.680Z,8536
2017-08-15T07:41:14.314Z,8552
2017-08-15T07:41:55.515Z,8820
2017-08-15T07:42:36.033Z,9496
2017-08-15T07:43:16.666Z,10316
2017-08-15T07:43:57.206Z,10908
2017-08-15T07:44:37.869Z,9700
2017-08-15T07:45:18.456Z,6568
2017-08-15T07:45:59.124Z,5476
2017-08-15T07:46:39.798Z,4912
2017-08-15T07:47:20.365Z,4484
2017-08-15T07:48:00.961Z,4184
2017-08-15T07:48:41.604Z,3984
2017-08-15T07:49:22.284Z,3916
2017-08-15T07:50:02.892Z,3936
2017-08-15T07:50:43.433Z,3980
2017-08-15T07:51:24.023Z,4024
2017-08-15T07:52:04.615Z,4088
2017-08-15T07:52:45.246Z,4192
2017-08-15T07:53:25.794Z,4328
2017-08-15T07:54:06.336Z,4408
2017-08-15T07:54:46.882Z,4432
2017-08-15T07:55:27.415Z,4464
2017-08-15T07:56:08.003Z,4524
2017-08-15T07:56:48.632Z,4600
2017-08-15T07:57:29.469Z,4680
2017-08-15T07:58:10.004Z,4576
2017-08-15T07:58:50.589Z,4340
2017-08-15T07:59:31.293Z,3920
2017-08-15T08:00:11.979Z,3528
2017-08-15T08:00:52.549Z,3356
2017-08-15T08:01:33.096Z,3276
2017-08-15T08:02:13.633Z,3208
2017-08-15T08:02:54.162Z,3108
2017-08-15T08:03:34.706Z,2932
2017-08-15T08:04:15.256Z,2816
2017-08-15T08:04:55.961Z,2740
2017-08-15T08:05:36.487Z,2672
2017-08-15T08:06:17.018Z,2580
2017-08-15T08:06:57.579Z,2492
2017-08-15T08:07:38.317Z,2468
2017-08-15T08:08:18.884Z,2484
2017-08-15T08:08:59.404Z,2528
2017-08-15T08:09:39.965Z,2544
2017-08-15T08:10:20.486Z,2512
2017-08-15T08:11:00.996Z,2440
2017-08-15T08:11:41.539Z,2388
2017-08-15T08:12:22.030Z,2360
2017-08-15T08:13:02.529Z,2328
2017-08-15T08:13:43.079Z,2288
2017-08-15T08:14:23.606Z,2236
2017-08-15T08:15:04.134Z,2168
2017-08-15T08:15:44.700Z,2116
2017-08-15T08:16:25.215Z,2068
2017-08-15T08:17:05.776Z,2028
2017-08-15T08:17:46.302Z,1980
2017-08-15T08:18:26.840Z,1916
2017-08-15T08:19:07.369Z,1840
2017-08-15T08:19:47.935Z,1752
2017-08-15T08:20:28.760Z,1676
2017-08-15T08:21:10.370Z,1616
2017-08-15T08:21:51.407Z,1568
2017-08-15T08:22:31.958Z,1520
2017-08-15T08:23:12.574Z,1480
2017-08-15T08:23:56.193Z,1444
2017-08-15T08:24:37.476Z,1416
2017-08-15T08:25:18.054Z,1396
2017-08-15T08:25:58.587Z,1384
2017-08-15T08:26:39.168Z,1380
2017-08-15T08:27:19.751Z,1388
2017-08-15T08:28:00.378Z,1384
2017-08-15T08:28:40.996Z,1396
2017-08-15T08:29:21.495Z,1412
2017-08-15T08:30:02.049Z,1440
2017-08-15T08:30:42.669Z,1468
2017-08-15T08:31:23.395Z,1484
2017-08-15T08:32:04.084Z,1496
2017-08-15T08:32:44.789Z,1512
2017-08-15T08:33:26.079Z,1512
2017-08-15T08:34:06.648Z,1492
2017-08-15T08:34:47.744Z,1456
2017-08-15T08:35:28.642Z,1412
2017-08-15T08:36:09.184Z,1376
2017-08-15T08:36:50.922Z,1348
2017-08-15T08:37:33.408Z,1340
2017-08-15T08:38:16.382Z,1348
2017-08-15T08:39:02.551Z,1352
2017-08-15T08:39:44.216Z,1368
2017-08-15T08:40:24.931Z,1388
2017-08-15T08:41:05.719Z,1360
2017-08-15T08:41:46.375Z,1320
2017-08-15T08:42:27.061Z,1260
2017-08-15T08:43:07.695Z,1188
2017-08-15T08:43:48.522Z,1120
2017-08-15T08:44:29.321Z,1080
2017-08-15T08:45:10.021Z,1064
2017-08-15T08:45:50.610Z,1064
2017-08-15T08:46:31.241Z,1060
2017-08-15T08:47:11.840Z,1036
2017-08-15T08:47:52.605Z,1000
2017-08-15T08:48:33.340Z,964
2017-08-15T08:49:14.065Z,936
2017-08-15T08:49:54.786Z,920
2017-08-15T08:50:35.624Z,912
2017-08-15T08:51:16.307Z,892
2017-08-15T08:51:56.970Z,872
2017-08-15T08:52:37.680Z,872
2017-08-15T08:53:18.461Z,880
2017-08-15T08:53:59.168Z,884
2017-08-15T08:56:13.563Z,876
2017-08-15T08:56:54.084Z,884
2017-08-15T08:57:34.546Z,892
2017-08-15T08:58:15.138Z,900
2017-08-15T08:58:55.665Z,908
2017-08-15T08:59:36.308Z,920
2017-08-15T09:00:17.825Z,936
2017-08-15T09:00:58.535Z,928
2017-08-15T09:01:39.147Z,940
2017-08-15T09:02:20.090Z,936
2017-08-15T09:03:01.174Z,932
2017-08-15T09:03:41.823Z,936
2017-08-15T09:04:22.520Z,948
2017-08-15T09:05:03.144Z,968
2017-08-15T09:05:43.894Z,992
2017-08-15T09:06:24.612Z,1024
2017-08-15T09:07:05.324Z,1068
2017-08-15T09:07:45.909Z,1132
2017-08-15T09:08:26.546Z,1148
2017-08-15T09:09:07.285Z,1188
2017-08-15T09:09:49.807Z,1252
2017-08-15T09:10:29.491Z,1284
2017-08-15T09:11:11.993Z,1340
2017-08-15T09:11:52.676Z,1396
2017-08-15T09:12:33.499Z,1484
2017-08-15T09:13:14.528Z,1576
2017-08-15T09:13:57.593Z,1668
2017-08-15T09:14:38.142Z,1764
2017-08-15T09:15:18.719Z,1864
2017-08-15T09:15:59.435Z,1984
2017-08-15T09:16:40.262Z,2152
2017-08-15T09:17:21.452Z,2320
2017-08-15T09:18:02.177Z,2512
2017-08-15T09:18:42.762Z,2712
2017-08-15T09:19:23.277Z,2960
2017-08-15T09:20:03.850Z,3188
2017-08-15T09:20:44.671Z,3444
2017-08-15T09:21:25.197Z,3696
2017-08-15T09:22:05.746Z,3876
2017-08-15T09:22:46.259Z,3960
2017-08-15T09:23:26.802Z,3964
2017-08-15T09:24:07.426Z,3852
2017-08-15T09:24:48.000Z,3660
2017-08-15T09:25:28.622Z,3348
2017-08-15T09:26:09.245Z,3100
2017-08-15T09:26:49.778Z,2852
2017-08-15T09:27:30.282Z,2624
2017-08-15T09:28:14.935Z,2404
2017-08-15T09:28:55.986Z,2212
2017-08-15T09:29:36.396Z,2056
2017-08-15T09:30:16.861Z,1916
2017-08-15T09:30:58.630Z,1796